createdAt,value
2023-03-21T00:00:59.808Z,24.20
2023-03-21T00:03:31.112Z,25.00
2023-03-21T00:06:06.209Z,25.40
2023-03-21T00:08:36.887Z,27.20
2023-03-21T00:11:10.135Z,27.70
2023-03-21T00:13:42.571Z,26.80
2023-03-21T00:16:22.081Z,28.00
2023-03-21T00:33:37.238Z,24.90
2023-03-21T00:36:09.858Z,26.40
2023-03-21T00:38:40.970Z,25.90
2023-03-21T00:41:25.842Z,25.40
2023-03-21T00:44:02.166Z,25.40
2023-03-21T00:46:45.195Z,27.10
2023-03-21T00:49:20.743Z,28.10
2023-03-21T00:51:53.225Z,27.20
2023-03-21T00:54:23.790Z,24.00
2023-03-21T00:56:54.152Z,24.90
2023-03-21T00:59:24.452Z,26.90
2023-03-21T01:01:54.951Z,25.30
2023-03-21T01:04:28.491Z,21.90
2023-03-21T01:06:58.974Z,23.50
2023-03-21T01:09:29.859Z,33.10
2023-03-21T01:12:01.798Z,30.20
2023-03-21T01:14:33.347Z,29.00
2023-03-21T01:17:03.739Z,27.70
2023-03-21T01:19:48.725Z,26.60
2023-03-21T01:22:23.237Z,22.20
2023-03-21T01:24:58.490Z,28.10
2023-03-21T01:27:33.679Z,25.80
2023-03-21T01:30:06.283Z,21.50
2023-03-21T01:32:39.407Z,23.90
2023-03-21T01:35:10.661Z,20.40
2023-03-21T01:37:41.776Z,18.00
2023-03-21T01:40:17.311Z,19.70
2023-03-21T01:42:47.919Z,19.10
2023-03-21T01:45:54.065Z,19.00
2023-03-21T01:48:28.105Z,18.20
2023-03-21T01:51:03.598Z,18.50
2023-03-21T01:53:41.784Z,20.20
2023-03-21T01:56:19.208Z,19.40
2023-03-21T01:59:09.901Z,18.60
2023-03-21T02:02:07.169Z,21.20
2023-03-21T02:04:41.351Z,21.30
2023-03-21T02:07:25.891Z,18.40
2023-03-21T02:10:01.528Z,20.20
2023-03-21T02:12:32.815Z,27.80
2023-03-21T02:15:04.548Z,21.40
2023-03-21T02:18:00.389Z,21.30
2023-03-21T02:21:16.649Z,19.90
2023-03-21T02:24:12.543Z,17.70
2023-03-21T02:27:05.165Z,19.10
2023-03-21T02:30:17.444Z,22.20
2023-03-21T02:33:10.100Z,17.70
2023-03-21T02:36:13.933Z,19.60
2023-03-21T02:38:53.676Z,18.90
2023-03-21T02:41:40.052Z,22.40
2023-03-21T02:44:19.255Z,22.80
2023-03-21T02:47:05.343Z,21.30
2023-03-21T02:52:35.657Z,23.50
2023-03-21T02:55:14.244Z,21.00
2023-03-21T02:57:53.969Z,21.20
2023-03-21T03:00:27.748Z,21.40
2023-03-21T03:03:08.829Z,21.00
2023-03-21T03:05:46.878Z,22.40
2023-03-21T03:08:38.600Z,21.60
2023-03-21T03:11:22.061Z,24.50
2023-03-21T03:14:19.139Z,20.70
2023-03-21T03:17:06.610Z,24.10
2023-03-21T03:19:50.771Z,22.90
2023-03-21T03:22:28.993Z,22.70
2023-03-21T03:25:18.659Z,23.90
2023-03-21T03:27:59.234Z,20.80
2023-03-21T03:30:41.164Z,25.30
2023-03-21T03:33:17.215Z,22.20
2023-03-21T03:35:59.047Z,23.00
2023-03-21T03:38:39.017Z,21.30
2023-03-21T03:41:17.686Z,21.40
2023-03-21T03:43:59.038Z,18.90
2023-03-21T03:46:34.258Z,22.20
2023-03-21T03:49:13.183Z,21.90
2023-03-21T03:51:51.952Z,23.80
2023-03-21T03:54:33.790Z,23.90
2023-03-21T03:57:06.038Z,26.10
2023-03-21T03:59:38.767Z,24.50
2023-03-21T04:02:25.461Z,24.60
2023-03-21T04:04:58.415Z,26.30
2023-03-21T04:07:29.065Z,23.60
2023-03-21T04:10:01.970Z,26.20
2023-03-21T04:12:34.488Z,25.00
2023-03-21T04:17:54.483Z,25.50
2023-03-21T04:20:36.129Z,25.50
2023-03-21T04:23:08.768Z,21.40
2023-03-21T04:25:47.630Z,25.30
2023-03-21T04:28:25.010Z,25.70
2023-03-21T04:31:08.905Z,29.50
2023-03-21T04:33:50.068Z,22.30
2023-03-21T04:36:27.503Z,25.30
2023-03-21T04:39:02.011Z,25.70
2023-03-21T04:41:33.888Z,28.60
2023-03-21T04:44:04.456Z,25.50
2023-03-21T04:46:35.213Z,26.80
2023-03-21T04:49:07.085Z,26.30
2023-03-21T04:51:38.829Z,25.50
2023-03-21T04:56:44.834Z,30.10
2023-03-21T04:59:17.700Z,31.20
2023-03-21T05:01:48.061Z,30.00
2023-03-21T05:04:19.099Z,30.20
2023-03-21T05:06:49.879Z,30.20
2023-03-21T05:09:22.264Z,28.30
2023-03-21T05:11:52.952Z,27.30
2023-03-21T05:14:25.613Z,25.80
2023-03-21T05:16:57.692Z,27.40
2023-03-21T05:19:35.514Z,27.50
2023-03-21T05:22:10.009Z,29.30
2023-03-21T05:24:41.861Z,26.40
2023-03-21T05:27:34.981Z,27.10
2023-03-21T05:30:12.489Z,25.70
2023-03-21T05:32:43.275Z,25.70
2023-03-21T05:35:15.583Z,27.90
2023-03-21T05:37:46.694Z,26.00
2023-03-21T05:40:17.544Z,27.20
2023-03-21T05:42:50.371Z,27.90
2023-03-21T05:45:27.236Z,31.80
2023-03-21T05:47:58.235Z,28.20
2023-03-21T05:50:31.361Z,23.30
2023-03-21T05:53:13.800Z,25.80
2023-03-21T05:55:45.712Z,26.30
2023-03-21T05:58:23.122Z,26.90
2023-03-21T06:00:53.748Z,31.70
2023-03-21T06:06:04.529Z,25.80
2023-03-21T06:08:40.773Z,28.60
2023-03-21T06:11:21.280Z,25.70
2023-03-21T06:13:54.845Z,23.70
2023-03-21T06:16:26.209Z,27.90
2023-03-21T06:18:56.678Z,25.90
2023-03-21T06:21:43.275Z,27.70
2023-03-21T06:24:13.982Z,27.30
2023-03-21T06:26:45.435Z,22.90
2023-03-21T06:29:16.639Z,25.80
2023-03-21T06:31:51.251Z,22.20
2023-03-21T06:34:21.940Z,28.30
2023-03-21T06:36:54.662Z,22.70
2023-03-21T06:39:28.759Z,21.90
2023-03-21T06:41:59.607Z,19.60
2023-03-21T06:44:30.637Z,22.90
2023-03-21T06:47:05.485Z,23.30
2023-03-21T06:49:38.393Z,20.40
2023-03-21T06:52:12.410Z,21.00
2023-03-21T06:54:43.257Z,29.50
2023-03-21T06:57:15.572Z,21.70
2023-03-21T06:59:46.355Z,22.30
2023-03-21T07:02:25.081Z,23.40
2023-03-21T07:05:13.520Z,25.40
2023-03-21T07:07:44.353Z,22.70
2023-03-21T07:10:15.416Z,24.20
2023-03-21T07:12:49.794Z,22.50
2023-03-21T07:15:24.314Z,18.60
2023-03-21T07:17:55.200Z,18.50
2023-03-21T07:20:26.786Z,23.60
2023-03-21T07:22:57.247Z,23.10
2023-03-21T07:25:30.927Z,23.40
2023-03-21T07:28:01.757Z,21.20
2023-03-21T07:30:32.132Z,23.20
2023-03-21T07:33:07.181Z,27.80
2023-03-21T07:35:38.004Z,23.20
2023-03-21T07:38:10.118Z,23.40
2023-03-21T07:40:40.466Z,23.00
2023-03-21T07:43:10.918Z,26.30
2023-03-21T07:45:43.041Z,25.10
2023-03-21T07:48:17.539Z,19.10
2023-03-21T07:50:50.004Z,21.00
2023-03-21T07:53:20.467Z,19.00
2023-03-21T07:55:53.823Z,18.90
2023-03-21T07:58:27.345Z,17.50
2023-03-21T08:00:59.468Z,19.60
2023-03-21T08:03:31.603Z,19.40
2023-03-21T08:06:03.164Z,20.70
2023-03-21T08:08:33.592Z,22.60
2023-03-21T08:11:04.630Z,19.80
2023-03-21T08:13:35.224Z,19.10
2023-03-21T08:16:07.561Z,19.90
2023-03-21T08:18:45.342Z,18.10
2023-03-21T08:21:15.704Z,17.70
2023-03-21T08:23:46.147Z,15.10
2023-03-21T08:26:18.482Z,19.20
2023-03-21T08:28:49.195Z,19.00
2023-03-21T08:31:21.586Z,19.00
2023-03-21T08:33:54.939Z,24.50
2023-03-21T08:36:26.215Z,19.90
2023-03-21T08:39:04.272Z,18.70
2023-03-21T08:41:35.378Z,19.80
2023-03-21T08:44:07.366Z,21.10
2023-03-21T08:46:37.891Z,26.20
2023-03-21T08:49:08.408Z,24.80
2023-03-21T08:51:38.955Z,21.50
2023-03-21T08:54:09.568Z,21.50
2023-03-21T08:56:40.068Z,19.70
2023-03-21T08:59:12.481Z,28.10
2023-03-21T09:01:42.930Z,18.30
2023-03-21T09:04:13.408Z,24.30
2023-03-21T09:06:45.695Z,20.30
2023-03-21T09:09:16.687Z,20.40
2023-03-21T09:11:47.050Z,26.70
2023-03-21T09:14:18.358Z,20.10
2023-03-21T09:16:49.904Z,25.10
2023-03-21T09:19:20.746Z,29.60
2023-03-21T09:21:53.296Z,22.70
2023-03-21T09:24:24.276Z,26.50
2023-03-21T09:26:54.621Z,22.50
2023-03-21T09:29:27.477Z,23.40
2023-03-21T09:31:58.683Z,22.10
2023-03-21T09:34:29.416Z,23.00
2023-03-21T09:37:00.057Z,22.80
2023-03-21T09:39:30.919Z,20.70
2023-03-21T09:42:24.924Z,21.30
2023-03-21T09:45:08.796Z,20.30
2023-03-21T09:47:49.269Z,21.60
2023-03-21T09:50:27.121Z,18.30
2023-03-21T09:53:00.536Z,21.40
2023-03-21T09:55:35.499Z,19.60
2023-03-21T09:58:15.291Z,16.80
2023-03-21T10:00:49.682Z,17.90
2023-03-21T10:03:24.671Z,20.60
2023-03-21T10:05:58.912Z,22.50
2023-03-21T10:08:34.162Z,22.70
2023-03-21T10:11:09.007Z,20.90
2023-03-21T10:13:45.022Z,24.00
2023-03-21T10:16:20.239Z,18.80
2023-03-21T10:18:51.849Z,18.40
2023-03-21T10:21:51.345Z,19.40
2023-03-21T10:24:18.316Z,18.10
2023-03-21T10:26:50.694Z,16.90
2023-03-21T10:29:23.542Z,17.40
2023-03-21T10:31:55.736Z,22.20
2023-03-21T10:34:33.035Z,19.30
2023-03-21T10:37:06.318Z,22.80
2023-03-21T10:39:39.693Z,23.60
2023-03-21T10:42:19.856Z,21.40
2023-03-21T10:44:52.384Z,20.70
2023-03-21T10:47:28.599Z,26.00
2023-03-21T10:50:07.608Z,21.70
2023-03-21T10:52:46.330Z,26.70
2023-03-21T10:55:28.968Z,19.80
2023-03-21T10:58:03.880Z,23.10
2023-03-21T11:00:40.007Z,19.20
2023-03-21T11:03:21.346Z,20.90
2023-03-21T11:05:57.310Z,22.90
2023-03-21T11:08:28.387Z,23.30
2023-03-21T11:11:05.258Z,24.20
2023-03-21T11:13:41.043Z,25.10
2023-03-21T11:16:19.549Z,23.50
2023-03-21T11:18:53.212Z,20.00
2023-03-21T11:21:29.699Z,22.20
2023-03-21T11:24:00.373Z,25.00
2023-03-21T11:26:36.642Z,27.80
2023-03-21T11:29:22.111Z,26.10
2023-03-21T11:31:52.693Z,23.80
2023-03-21T11:34:33.833Z,25.30
2023-03-21T11:37:05.216Z,24.40
2023-03-21T11:39:40.306Z,31.20
2023-03-21T11:42:28.884Z,28.30
2023-03-21T11:45:12.463Z,29.20
2023-03-21T11:47:43.138Z,23.20
2023-03-21T11:50:28.144Z,29.70
2023-03-21T11:53:13.703Z,25.90
2023-03-21T11:55:54.850Z,26.10
2023-03-21T11:58:39.003Z,23.80
2023-03-21T12:01:21.177Z,25.20
2023-03-21T12:04:19.071Z,24.20
2023-03-21T12:06:55.367Z,23.80
2023-03-21T12:09:35.654Z,25.60
2023-03-21T12:12:37.979Z,23.90
2023-03-21T12:15:18.772Z,24.10
2023-03-21T12:17:58.943Z,25.10
2023-03-21T12:20:48.611Z,23.30
2023-03-21T12:23:46.747Z,21.00
2023-03-21T12:26:24.213Z,22.80
2023-03-21T12:29:16.171Z,25.20
2023-03-21T12:32:02.521Z,24.90
2023-03-21T12:34:52.643Z,23.80
2023-03-21T12:37:45.348Z,28.60
2023-03-21T12:40:23.481Z,23.70
2023-03-21T12:43:08.543Z,25.80
2023-03-21T12:45:47.220Z,28.60
2023-03-21T12:48:23.831Z,23.70
2023-03-21T12:50:57.509Z,22.90
2023-03-21T12:53:43.058Z,26.90
2023-03-21T12:56:19.773Z,23.90
2023-03-21T12:58:53.419Z,26.20
2023-03-21T13:01:25.718Z,25.20
2023-03-21T13:04:09.404Z,24.00
2023-03-21T13:06:41.080Z,23.30
2023-03-21T13:09:23.337Z,25.60
2023-03-21T13:12:06.477Z,22.00
2023-03-21T13:14:45.712Z,23.90
2023-03-21T13:17:23.892Z,22.70
2023-03-21T13:20:00.569Z,23.40
2023-03-21T13:22:32.428Z,22.40
2023-03-21T13:25:17.317Z,27.40
2023-03-21T13:27:53.986Z,21.50
2023-03-21T13:30:27.436Z,23.90
2023-03-21T13:33:08.246Z,21.90
2023-03-21T13:35:42.512Z,20.50
2023-03-21T13:38:19.165Z,22.10
2023-03-21T13:40:52.673Z,19.10
2023-03-21T13:43:44.603Z,22.80
2023-03-21T13:46:16.699Z,20.50
2023-03-21T13:49:02.399Z,17.70
2023-03-21T13:51:45.995Z,22.10
2023-03-21T13:54:29.604Z,21.00
2023-03-21T13:57:01.933Z,22.20
2023-03-21T13:59:44.806Z,16.90
2023-03-21T14:02:29.470Z,19.30
2023-03-21T14:05:06.080Z,20.40
2023-03-21T14:07:42.103Z,23.90
2023-03-21T14:10:21.955Z,19.30
2023-03-21T14:12:53.193Z,20.80
2023-03-21T14:15:25.924Z,18.70
2023-03-21T14:18:03.408Z,18.20
2023-03-21T14:20:42.270Z,21.00
2023-03-21T14:23:17.289Z,20.90
2023-03-21T14:25:49.925Z,19.80
2023-03-21T14:28:23.941Z,20.30
2023-03-21T14:30:58.055Z,18.90
2023-03-21T14:33:33.370Z,19.50
2023-03-21T14:36:08.877Z,22.80
2023-03-21T14:38:41.267Z,23.30
2023-03-21T14:41:26.424Z,21.10
2023-03-21T14:44:25.568Z,20.90
2023-03-21T14:47:03.308Z,19.30
2023-03-21T14:49:35.610Z,17.90
2023-03-21T14:52:09.038Z,22.40
2023-03-21T14:54:43.653Z,20.50
2023-03-21T14:57:20.338Z,22.20
2023-03-21T14:59:52.685Z,19.50
2023-03-21T15:02:27.759Z,19.10
2023-03-21T15:05:06.423Z,20.30
2023-03-21T15:07:37.455Z,18.90
2023-03-21T15:10:16.537Z,22.10
2023-03-21T15:12:54.973Z,19.40
2023-03-21T15:15:27.692Z,19.50
2023-03-21T15:18:04.096Z,18.80
2023-03-21T15:20:38.330Z,21.80
2023-03-21T15:23:12.965Z,22.10
2023-03-21T15:25:44.209Z,21.20
2023-03-21T15:28:16.188Z,22.80
2023-03-21T15:30:52.636Z,20.50
2023-03-21T15:33:24.886Z,18.40
2023-03-21T15:35:57.909Z,21.90
2023-03-21T15:38:35.434Z,20.40
2023-03-21T15:41:27.239Z,22.10
2023-03-21T15:44:06.688Z,24.10
2023-03-21T15:46:43.064Z,22.20
2023-03-21T15:49:25.459Z,20.30
2023-03-21T15:52:00.223Z,23.10
2023-03-21T15:54:33.447Z,18.60
2023-03-21T15:57:09.636Z,19.40
2023-03-21T15:59:43.528Z,19.20
2023-03-21T16:02:24.156Z,21.20
2023-03-21T16:05:03.687Z,16.80
2023-03-21T16:07:36.886Z,20.90
2023-03-21T16:10:20.037Z,20.40
2023-03-21T16:12:51.515Z,18.90
2023-03-21T16:15:22.776Z,19.70
2023-03-21T16:17:55.884Z,18.80
2023-03-21T16:20:28.332Z,17.20
2023-03-21T16:22:58.694Z,19.80
2023-03-21T16:25:30.309Z,18.60
2023-03-21T16:28:00.898Z,24.80
2023-03-21T16:30:31.266Z,19.50
2023-03-21T16:33:01.637Z,21.80
2023-03-21T16:35:32.324Z,24.70
2023-03-21T16:38:03.403Z,20.20
2023-03-21T16:40:37.156Z,20.20
2023-03-21T16:43:07.914Z,18.90
2023-03-21T16:45:38.395Z,21.60
2023-03-21T16:48:12.363Z,22.80
2023-03-21T16:50:46.814Z,25.50
2023-03-21T16:53:17.960Z,25.20
2023-03-21T16:55:48.782Z,24.70
2023-03-21T16:58:19.134Z,26.40
2023-03-21T17:00:49.431Z,22.40
2023-03-21T17:03:21.598Z,23.40
2023-03-21T17:05:52.088Z,21.90
2023-03-21T17:08:22.586Z,20.70
2023-03-21T17:10:53.145Z,19.70
2023-03-21T17:13:23.516Z,20.20
2023-03-21T17:15:53.953Z,20.40
2023-03-21T17:18:24.292Z,23.20
2023-03-21T17:20:54.646Z,23.90
2023-03-21T17:23:25.562Z,22.40
2023-03-21T17:25:56.257Z,23.40
2023-03-21T17:28:26.658Z,24.00
2023-03-21T17:30:57.393Z,22.40
2023-03-21T17:33:27.768Z,23.70
2023-03-21T17:35:58.425Z,20.60
2023-03-21T17:38:30.106Z,27.10
2023-03-21T17:41:00.670Z,20.40
2023-03-21T17:43:31.251Z,26.00
2023-03-21T17:46:01.669Z,23.00
2023-03-21T17:48:32.243Z,22.70
2023-03-21T17:51:02.737Z,26.80
2023-03-21T17:53:33.405Z,26.30
2023-03-21T17:56:03.855Z,30.40
2023-03-21T17:58:34.224Z,27.90
2023-03-21T18:01:04.860Z,29.60
2023-03-21T18:03:35.326Z,29.70
2023-03-21T18:06:06.868Z,34.10
2023-03-21T18:08:37.248Z,33.70
2023-03-21T18:11:10.304Z,32.70
2023-03-21T18:13:40.704Z,28.60
2023-03-21T18:16:14.714Z,30.60
2023-03-21T18:18:46.719Z,28.60
2023-03-21T18:21:20.172Z,34.20
2023-03-21T18:23:51.100Z,28.80
2023-03-21T18:26:26.025Z,30.40
2023-03-21T18:29:47.402Z,31.20
2023-03-21T18:32:04.340Z,33.00
2023-03-21T18:34:36.741Z,26.60
2023-03-21T18:37:08.567Z,31.40
2023-03-21T18:39:44.415Z,30.40
2023-03-21T18:42:18.866Z,33.30
2023-03-21T18:44:52.584Z,32.90
2023-03-21T18:47:23.639Z,29.90
2023-03-21T18:50:13.372Z,32.20
2023-03-21T18:52:47.279Z,29.90
2023-03-21T18:55:19.036Z,35.00
2023-03-21T18:57:51.149Z,31.20
2023-03-21T19:00:23.575Z,33.70
2023-03-21T19:03:13.116Z,33.10
2023-03-21T19:05:50.523Z,31.80
2023-03-21T19:08:20.961Z,29.60
2023-03-21T19:10:52.065Z,32.90
2023-03-21T19:13:22.474Z,28.90
2023-03-21T19:15:54.033Z,31.10
2023-03-21T19:18:54.042Z,35.90
2023-03-21T19:21:18.007Z,30.00
2023-03-21T19:26:38.759Z,27.50
2023-03-21T19:29:09.263Z,29.30
2023-03-21T19:31:39.712Z,29.10
2023-03-21T19:34:10.239Z,25.10
2023-03-21T19:36:45.759Z,24.70
2023-03-21T19:39:22.222Z,25.00
2023-03-21T19:41:55.343Z,22.00
2023-03-21T19:44:34.310Z,24.90
2023-03-21T19:47:04.728Z,22.40
2023-03-21T19:50:10.101Z,25.60
2023-03-21T19:52:25.932Z,27.80
2023-03-21T19:54:56.432Z,23.80
2023-03-21T19:57:27.963Z,23.40
2023-03-21T19:59:58.362Z,25.40
2023-03-21T20:02:37.111Z,27.40
2023-03-21T20:05:09.279Z,24.60
2023-03-21T20:07:40.041Z,25.50
2023-03-21T20:10:12.363Z,25.10
2023-03-21T20:12:42.659Z,29.60
2023-03-21T20:15:19.510Z,28.80
2023-03-21T20:17:51.924Z,28.10
2023-03-21T20:20:23.941Z,34.90
2023-03-21T20:23:11.204Z,30.30
2023-03-21T20:25:46.582Z,31.30
2023-03-21T20:28:25.101Z,29.40
2023-03-21T20:31:00.601Z,28.30
2023-03-21T20:33:32.062Z,30.00
2023-03-21T20:36:38.117Z,30.10
2023-03-21T20:38:55.813Z,34.70
2023-03-21T20:41:26.121Z,31.40
2023-03-21T20:46:51.168Z,33.10
2023-03-21T20:49:23.156Z,35.80
2023-03-21T20:54:46.997Z,38.10
2023-03-21T20:57:18.054Z,38.40
2023-03-21T20:59:48.938Z,35.70
2023-03-21T21:02:19.310Z,34.60
2023-03-21T21:05:21.559Z,34.90
2023-03-21T21:07:42.676Z,39.50
2023-03-21T21:10:17.198Z,42.30
2023-03-21T21:12:47.554Z,38.50
2023-03-21T21:15:18.261Z,38.40
2023-03-21T21:18:07.112Z,36.00
2023-03-21T21:20:39.440Z,31.70
2023-03-21T21:23:10.257Z,31.10
2023-03-21T21:25:40.713Z,34.90
2023-03-21T21:28:11.989Z,30.70
2023-03-21T21:30:42.778Z,32.80
2023-03-21T21:33:18.010Z,32.50
2023-03-21T21:35:50.093Z,36.30
2023-03-21T21:38:21.770Z,31.30
2023-03-21T21:40:55.148Z,27.10
2023-03-21T21:43:26.450Z,26.40
2023-03-21T21:45:57.018Z,30.30
2023-03-21T21:48:31.160Z,28.90
2023-03-21T21:51:02.545Z,30.90
2023-03-21T21:53:33.769Z,29.30
2023-03-21T21:56:06.378Z,32.60
2023-03-21T21:58:38.833Z,30.40
2023-03-21T22:01:10.602Z,34.00
2023-03-21T22:03:42.408Z,31.30
2023-03-21T22:06:14.440Z,34.20
2023-03-21T22:08:47.066Z,28.50
2023-03-21T22:11:18.684Z,28.70
2023-03-21T22:13:49.565Z,35.00
2023-03-21T22:16:19.968Z,38.90
2023-03-21T22:18:50.485Z,34.10
2023-03-21T22:21:21.122Z,31.10
2023-03-21T22:23:51.505Z,32.60
2023-03-21T22:26:21.805Z,32.40
2023-03-21T22:28:52.217Z,31.20
2023-03-21T22:31:23.436Z,29.70
2023-03-21T22:33:53.764Z,28.00
2023-03-21T22:36:24.112Z,29.00
2023-03-21T22:38:54.551Z,32.40
2023-03-21T22:41:24.923Z,29.20
2023-03-21T22:43:55.248Z,35.80
2023-03-21T22:46:25.580Z,33.90
2023-03-21T22:48:55.911Z,33.30
2023-03-21T22:51:26.217Z,30.60
2023-03-21T22:53:56.509Z,34.70
2023-03-21T22:56:26.815Z,33.20
2023-03-21T22:58:57.282Z,37.60
2023-03-21T23:01:27.827Z,35.90
2023-03-21T23:03:58.311Z,37.60
2023-03-21T23:06:28.774Z,36.80
2023-03-21T23:08:59.085Z,32.90
2023-03-21T23:11:29.531Z,36.00
2023-03-21T23:14:07.713Z,39.20
2023-03-21T23:16:38.651Z,33.20
2023-03-21T23:19:10.381Z,30.70
2023-03-21T23:21:41.512Z,35.00
2023-03-21T23:24:12.951Z,35.40
2023-03-21T23:26:43.384Z,38.70
2023-03-21T23:29:14.302Z,43.20
2023-03-21T23:31:44.615Z,43.20
2023-03-21T23:34:16.150Z,40.30
2023-03-21T23:36:46.830Z,39.30
2023-03-21T23:39:18.675Z,37.70
2023-03-21T23:41:49.082Z,34.80
2023-03-21T23:44:19.670Z,32.50
2023-03-21T23:46:49.944Z,33.90
2023-03-21T23:49:20.319Z,36.00
2023-03-21T23:51:53.571Z,33.80
2023-03-21T23:54:23.918Z,38.40
2023-03-21T23:56:54.279Z,35.70
2023-03-21T23:59:24.834Z,31.50
